createdAt,value
2019-01-24T00:01:10.617Z,10.23
2019-01-24T00:03:39.274Z,9.97
2019-01-24T00:06:07.640Z,10.03
2019-01-24T00:08:35.954Z,10.03
2019-01-24T00:11:04.663Z,9.93
2019-01-24T00:13:33.252Z,9.57
2019-01-24T00:16:01.773Z,10.43
2019-01-24T00:18:30.402Z,10.07
2019-01-24T00:20:58.748Z,9.23
2019-01-24T00:23:27.115Z,10.17
2019-01-24T00:25:55.487Z,8.37
2019-01-24T00:28:23.988Z,9.43
2019-01-24T00:30:52.646Z,8.63
2019-01-24T00:33:20.962Z,10.00
2019-01-24T00:35:49.419Z,10.07
2019-01-24T00:38:18.239Z,9.97
2019-01-24T00:40:46.827Z,9.20
2019-01-24T00:43:15.158Z,9.93
2019-01-24T00:45:43.886Z,8.67
2019-01-24T00:48:12.442Z,8.67
2019-01-24T00:50:40.766Z,9.33
2019-01-24T00:53:09.140Z,9.33
2019-01-24T00:55:37.648Z,9.30
2019-01-24T00:58:05.979Z,8.07
2019-01-24T01:00:34.456Z,8.70
2019-01-24T01:03:02.837Z,9.47
2019-01-24T01:05:31.523Z,9.67
2019-01-24T01:08:00.206Z,8.63
2019-01-24T01:10:29.039Z,9.40
2019-01-24T01:12:57.355Z,9.53
2019-01-24T01:15:25.758Z,9.17
2019-01-24T01:17:54.072Z,9.43
2019-01-24T01:20:23.271Z,8.30
2019-01-24T01:22:52.009Z,9.63
2019-01-24T01:25:20.362Z,9.40
2019-01-24T01:27:48.776Z,8.33
2019-01-24T01:30:20.175Z,9.50
2019-01-24T01:32:48.840Z,8.93
2019-01-24T01:35:17.268Z,10.13
2019-01-24T01:37:45.653Z,9.67
2019-01-24T01:40:14.881Z,8.93
2019-01-24T01:42:43.330Z,8.63
2019-01-24T01:45:14.028Z,10.53
2019-01-24T01:47:42.542Z,9.40
2019-01-24T01:50:13.802Z,9.70
2019-01-24T01:52:42.368Z,9.10
2019-01-24T01:55:10.721Z,8.13
2019-01-24T01:57:39.095Z,8.40
2019-01-24T02:00:09.477Z,8.83
2019-01-24T02:02:38.031Z,9.10
2019-01-24T02:05:07.332Z,9.53
2019-01-24T02:07:36.013Z,9.73
2019-01-24T02:10:05.759Z,8.97
2019-01-24T02:12:34.132Z,9.10
2019-01-24T02:15:02.665Z,8.27
2019-01-24T02:17:31.063Z,8.67
2019-01-24T02:19:59.697Z,9.53
2019-01-24T02:22:28.025Z,9.10
2019-01-24T02:24:56.414Z,10.30
2019-01-24T02:27:25.140Z,9.23
2019-01-24T02:29:53.513Z,8.43
2019-01-24T02:32:21.973Z,9.20
2019-01-24T02:34:50.326Z,9.47
2019-01-24T02:37:18.644Z,9.83
2019-01-24T02:39:47.257Z,9.83
2019-01-24T02:42:15.620Z,9.07
2019-01-24T02:44:43.951Z,9.37
2019-01-24T02:47:12.661Z,8.63
2019-01-24T02:49:40.966Z,8.53
2019-01-24T02:52:09.735Z,8.90
2019-01-24T02:54:38.080Z,9.00
2019-01-24T02:57:06.637Z,9.17
2019-01-24T02:59:35.031Z,9.53
2019-01-24T03:02:03.648Z,8.83
2019-01-24T03:04:32.087Z,9.37
2019-01-24T03:07:00.666Z,8.10
2019-01-24T03:09:29.036Z,9.83
2019-01-24T03:11:57.697Z,9.43
2019-01-24T03:14:26.186Z,9.97
2019-01-24T03:16:54.889Z,9.90
2019-01-24T03:19:23.517Z,9.10
2019-01-24T03:21:51.893Z,10.13
2019-01-24T03:24:20.279Z,9.73
2019-01-24T03:26:48.674Z,9.17
2019-01-24T03:29:16.967Z,9.27
2019-01-24T03:31:45.295Z,9.23
2019-01-24T03:34:14.144Z,10.30
2019-01-24T03:36:42.670Z,10.40
2019-01-24T03:39:10.974Z,9.13
2019-01-24T03:41:39.451Z,9.23
2019-01-24T03:44:08.207Z,10.50
2019-01-24T03:46:36.647Z,10.57
2019-01-24T03:49:05.085Z,9.90
2019-01-24T03:51:33.508Z,8.80
2019-01-24T03:54:02.395Z,9.47
2019-01-24T03:56:30.800Z,9.97
2019-01-24T03:58:59.147Z,10.73
2019-01-24T04:01:27.651Z,9.33
2019-01-24T04:03:56.001Z,10.10
2019-01-24T04:06:24.470Z,8.93
2019-01-24T04:08:52.970Z,10.05
2019-01-24T04:11:21.309Z,11.10
2019-01-24T04:13:50.031Z,10.00
2019-01-24T04:16:18.410Z,8.53
2019-01-24T04:18:46.745Z,9.13
2019-01-24T04:21:15.694Z,9.23
2019-01-24T04:23:44.156Z,9.13
2019-01-24T04:26:12.629Z,9.73
2019-01-24T04:28:40.956Z,9.90
2019-01-24T04:31:09.298Z,9.80
2019-01-24T04:33:37.873Z,9.13
2019-01-24T04:36:06.348Z,8.53
2019-01-24T04:38:34.972Z,9.50
2019-01-24T04:41:03.531Z,8.73
2019-01-24T04:43:32.061Z,9.93
2019-01-24T04:46:00.472Z,10.33
2019-01-24T04:48:28.981Z,10.57
2019-01-24T04:50:57.533Z,10.43
2019-01-24T04:53:25.909Z,11.10
2019-01-24T04:55:54.759Z,10.57
2019-01-24T04:58:23.283Z,10.57
2019-01-24T05:00:51.661Z,11.10
2019-01-24T05:03:20.318Z,10.93
2019-01-24T05:05:48.649Z,10.90
2019-01-24T05:08:17.405Z,11.27
2019-01-24T05:10:45.765Z,10.70
2019-01-24T05:13:14.167Z,10.10
2019-01-24T05:15:42.848Z,10.17
2019-01-24T05:18:11.204Z,8.00
2019-01-24T05:20:39.522Z,10.93
2019-01-24T05:23:07.846Z,9.30
2019-01-24T05:25:36.317Z,10.67
2019-01-24T05:28:04.706Z,11.20
2019-01-24T05:30:33.062Z,9.87
2019-01-24T05:33:01.489Z,9.40
2019-01-24T05:35:34.667Z,10.37
2019-01-24T05:37:58.247Z,11.33
2019-01-24T05:40:26.980Z,10.37
2019-01-24T05:42:55.332Z,10.77
2019-01-24T05:45:23.852Z,11.13
2019-01-24T05:47:52.367Z,11.37
2019-01-24T05:50:20.693Z,12.03
2019-01-24T05:52:49.400Z,11.90
2019-01-24T05:55:18.370Z,9.60
2019-01-24T05:57:47.092Z,10.83
2019-01-24T06:00:20.412Z,11.37
2019-01-24T06:02:48.742Z,10.37
2019-01-24T06:05:17.391Z,13.20
2019-01-24T06:07:45.810Z,11.73
2019-01-24T06:10:14.480Z,11.47
2019-01-24T06:12:42.872Z,12.70
2019-01-24T06:15:13.158Z,11.07
2019-01-24T06:17:41.464Z,11.83
2019-01-24T06:20:10.235Z,11.60
2019-01-24T06:22:38.831Z,11.90
2019-01-24T06:25:07.615Z,12.07
2019-01-24T06:27:36.241Z,11.63
2019-01-24T06:30:06.176Z,12.77
2019-01-24T06:32:34.805Z,12.37
2019-01-24T06:35:03.778Z,12.37
2019-01-24T06:37:32.127Z,12.80
2019-01-24T06:40:00.865Z,12.13
2019-01-24T06:42:29.241Z,11.20
2019-01-24T06:44:57.749Z,11.67
2019-01-24T06:47:26.331Z,10.97
2019-01-24T06:49:54.709Z,12.63
2019-01-24T06:52:23.052Z,12.47
2019-01-24T06:54:51.471Z,12.00
2019-01-24T06:57:20.090Z,12.20
2019-01-24T06:59:48.835Z,10.57
2019-01-24T07:02:17.168Z,11.57
2019-01-24T07:04:45.573Z,11.87
2019-01-24T07:07:13.971Z,13.57
2019-01-24T07:09:42.292Z,11.43
2019-01-24T07:12:10.640Z,11.90
2019-01-24T07:14:38.947Z,10.67
2019-01-24T07:17:07.304Z,12.47
2019-01-24T07:19:35.735Z,12.17
2019-01-24T07:22:04.045Z,13.33
2019-01-24T07:24:32.343Z,11.87
2019-01-24T07:27:00.746Z,12.60
2019-01-24T07:29:29.370Z,11.30
2019-01-24T07:31:57.886Z,12.27
2019-01-24T07:34:26.305Z,12.65
2019-01-24T07:36:54.785Z,12.33
2019-01-24T07:39:23.174Z,11.90
2019-01-24T07:41:51.554Z,12.57
2019-01-24T07:44:20.072Z,12.00
2019-01-24T07:46:48.420Z,12.57
2019-01-24T07:49:16.838Z,12.50
2019-01-24T07:51:45.200Z,13.55
2019-01-24T07:54:13.566Z,14.17
2019-01-24T07:56:42.312Z,11.83
2019-01-24T07:59:10.742Z,12.37
2019-01-24T08:01:39.506Z,13.40
2019-01-24T08:04:08.203Z,13.77
2019-01-24T08:06:36.668Z,12.45
2019-01-24T08:09:05.865Z,12.07
2019-01-24T08:11:34.174Z,12.57
2019-01-24T08:14:02.501Z,13.23
2019-01-24T08:16:30.890Z,13.03
2019-01-24T08:19:00.316Z,14.50
2019-01-24T08:21:29.001Z,14.00
2019-01-24T08:23:57.362Z,13.77
2019-01-24T08:26:25.710Z,15.23
2019-01-24T08:28:54.422Z,13.23
2019-01-24T08:31:22.822Z,14.53
2019-01-24T08:33:51.124Z,12.87
2019-01-24T08:36:19.555Z,14.27
2019-01-24T08:38:47.932Z,16.23
2019-01-24T08:41:16.300Z,14.67
2019-01-24T08:43:44.638Z,14.87
2019-01-24T08:46:12.977Z,15.27
2019-01-24T08:48:41.323Z,14.40
2019-01-24T08:51:09.700Z,14.40
2019-01-24T08:53:38.055Z,13.60
2019-01-24T08:56:06.367Z,14.77
2019-01-24T08:58:34.698Z,14.83
2019-01-24T09:01:03.053Z,14.40
2019-01-24T09:03:31.585Z,14.83
2019-01-24T09:06:00.245Z,15.23
2019-01-24T09:08:28.695Z,15.30
2019-01-24T09:10:57.155Z,15.60
2019-01-24T09:13:26.106Z,14.97
2019-01-24T09:15:54.697Z,15.60
2019-01-24T09:18:23.017Z,15.70
2019-01-24T09:20:51.689Z,15.73
2019-01-24T09:23:20.033Z,16.50
2019-01-24T09:25:48.350Z,15.60
2019-01-24T09:28:16.719Z,15.27
2019-01-24T09:30:45.041Z,16.47
2019-01-24T09:33:13.354Z,15.37
2019-01-24T09:35:41.672Z,15.17
2019-01-24T09:38:10.016Z,16.77
2019-01-24T09:40:38.570Z,16.30
2019-01-24T09:43:06.981Z,16.47
2019-01-24T09:45:35.752Z,15.70
2019-01-24T09:48:04.640Z,15.47
2019-01-24T09:50:33.033Z,13.73
2019-01-24T09:53:01.341Z,14.37
2019-01-24T09:55:29.670Z,13.40
2019-01-24T09:57:58.283Z,15.73
2019-01-24T10:00:29.645Z,14.93
2019-01-24T10:02:58.301Z,15.43
2019-01-24T10:05:27.294Z,14.40
2019-01-24T10:07:55.852Z,13.97
2019-01-24T10:10:24.806Z,14.63
2019-01-24T10:12:54.210Z,14.70
2019-01-24T10:15:22.683Z,15.23
2019-01-24T10:17:51.024Z,14.93
2019-01-24T10:20:20.879Z,14.33
2019-01-24T10:22:49.263Z,14.77
2019-01-24T10:25:20.405Z,15.53
2019-01-24T10:27:48.739Z,14.67
2019-01-24T10:30:18.744Z,14.47
2019-01-24T10:32:47.068Z,14.60
2019-01-24T10:35:15.409Z,15.37
2019-01-24T10:37:43.755Z,15.87
2019-01-24T10:40:15.669Z,14.57
2019-01-24T10:42:44.322Z,15.57
2019-01-24T10:45:13.909Z,14.67
2019-01-24T10:47:42.271Z,16.13
2019-01-24T10:50:11.854Z,16.90
2019-01-24T10:52:40.414Z,16.07
2019-01-24T10:55:13.704Z,15.83
2019-01-24T10:57:38.690Z,15.70
2019-01-24T11:00:10.953Z,15.10
2019-01-24T11:02:39.325Z,15.37
2019-01-24T11:05:09.172Z,16.57
2019-01-24T11:07:37.805Z,16.27
2019-01-24T11:10:06.414Z,15.90
2019-01-24T11:12:34.990Z,16.77
2019-01-24T11:15:03.356Z,16.50
2019-01-24T11:17:31.676Z,15.87
2019-01-24T11:20:00.184Z,15.73
2019-01-24T11:22:28.574Z,17.13
2019-01-24T11:24:56.870Z,15.50
2019-01-24T11:27:25.563Z,16.00
2019-01-24T11:29:54.166Z,15.63
2019-01-24T11:32:22.625Z,15.27
2019-01-24T11:34:50.981Z,16.43
2019-01-24T11:37:19.311Z,16.97
2019-01-24T11:39:47.638Z,16.40
2019-01-24T11:42:16.133Z,16.73
2019-01-24T11:44:44.442Z,16.83
2019-01-24T11:47:13.200Z,16.53
2019-01-24T11:49:41.587Z,15.33
2019-01-24T11:52:09.892Z,17.50
2019-01-24T11:54:38.334Z,17.20
2019-01-24T11:57:06.938Z,16.80
2019-01-24T11:59:35.313Z,15.70
2019-01-24T12:02:03.708Z,15.77
2019-01-24T12:04:32.258Z,16.70
2019-01-24T12:07:04.181Z,17.13
2019-01-24T12:09:29.375Z,17.60
2019-01-24T12:11:58.017Z,17.00
2019-01-24T12:14:26.374Z,15.60
2019-01-24T12:16:54.827Z,16.83
2019-01-24T12:19:23.218Z,15.83
2019-01-24T12:21:51.589Z,15.43
2019-01-24T12:24:20.095Z,15.07
2019-01-24T12:26:48.773Z,14.97
2019-01-24T12:29:17.069Z,15.53
2019-01-24T12:31:45.775Z,16.53
2019-01-24T12:34:14.217Z,15.87
2019-01-24T12:36:42.953Z,16.27
2019-01-24T12:39:11.489Z,16.13
2019-01-24T12:41:39.963Z,15.93
2019-01-24T12:44:08.318Z,14.83
2019-01-24T12:46:36.720Z,16.63
2019-01-24T12:49:05.212Z,15.60
2019-01-24T12:51:33.599Z,14.40
2019-01-24T12:54:02.139Z,15.60
2019-01-24T12:56:30.725Z,15.37
2019-01-24T12:58:59.807Z,15.77
2019-01-24T13:01:28.212Z,15.90
2019-01-24T13:03:56.846Z,16.33
2019-01-24T13:06:25.273Z,15.60
2019-01-24T13:08:53.617Z,17.30
2019-01-24T13:11:22.205Z,16.10
2019-01-24T13:13:50.525Z,15.43
2019-01-24T13:16:19.103Z,15.83
2019-01-24T13:18:47.572Z,17.43
2019-01-24T13:21:16.151Z,18.30
2019-01-24T13:23:44.511Z,16.77
2019-01-24T13:26:12.908Z,15.57
2019-01-24T13:28:41.273Z,16.27
2019-01-24T13:31:09.870Z,16.47
2019-01-24T13:33:38.471Z,15.80
2019-01-24T13:36:07.238Z,17.03
2019-01-24T13:38:35.564Z,17.70
2019-01-24T13:41:03.975Z,18.30
2019-01-24T13:43:32.676Z,19.20
2019-01-24T13:46:01.072Z,19.20
2019-01-24T13:48:29.395Z,18.43
2019-01-24T13:50:57.905Z,17.00
2019-01-24T13:53:26.318Z,19.13
2019-01-24T13:55:54.706Z,18.43
2019-01-24T13:58:23.077Z,19.13
2019-01-24T14:00:51.364Z,17.07
2019-01-24T14:03:33.668Z,18.20
2019-01-24T14:06:02.144Z,15.77
2019-01-24T14:08:30.594Z,17.30
2019-01-24T14:10:59.010Z,17.63
2019-01-24T14:13:27.753Z,17.33
2019-01-24T14:15:56.040Z,17.80
2019-01-24T14:18:24.357Z,18.43
2019-01-24T14:20:52.879Z,17.57
2019-01-24T14:23:21.382Z,17.27
2019-01-24T14:25:49.717Z,17.63
2019-01-24T14:28:18.323Z,15.23
2019-01-24T14:30:46.730Z,18.43
2019-01-24T14:33:15.310Z,15.47
2019-01-24T14:35:44.100Z,15.70
2019-01-24T14:38:12.567Z,17.03
2019-01-24T14:40:40.906Z,16.33
2019-01-24T14:43:09.254Z,16.33
2019-01-24T14:45:37.599Z,18.13
2019-01-24T14:48:06.557Z,17.37
2019-01-24T14:50:34.933Z,18.03
2019-01-24T14:53:03.327Z,17.07
2019-01-24T14:55:31.662Z,16.13
2019-01-24T14:58:00.076Z,16.63
2019-01-24T15:00:34.087Z,16.70
2019-01-24T15:03:02.674Z,17.20
2019-01-24T15:05:31.464Z,18.10
2019-01-24T15:07:59.794Z,18.23
2019-01-24T15:10:28.202Z,17.53
2019-01-24T15:12:56.611Z,17.07
2019-01-24T15:15:25.344Z,16.50
2019-01-24T15:17:53.676Z,19.80
2019-01-24T15:20:22.027Z,17.43
2019-01-24T15:22:50.403Z,17.97
2019-01-24T15:25:18.970Z,18.57
2019-01-24T15:27:47.341Z,17.43
2019-01-24T15:30:19.084Z,16.97
2019-01-24T15:32:47.419Z,15.43
2019-01-24T15:35:15.806Z,16.37
2019-01-24T15:37:44.258Z,17.60
2019-01-24T15:40:15.688Z,16.50
2019-01-24T15:42:44.050Z,16.57
2019-01-24T15:45:12.684Z,17.10
2019-01-24T15:47:41.150Z,17.23
2019-01-24T15:50:11.425Z,16.43
2019-01-24T15:52:39.820Z,16.63
2019-01-24T15:55:08.299Z,17.80
2019-01-24T15:57:36.823Z,18.13
2019-01-24T16:00:07.808Z,17.07
2019-01-24T16:02:36.480Z,16.67
2019-01-24T16:05:05.478Z,16.07
2019-01-24T16:07:34.129Z,15.57
2019-01-24T16:10:02.660Z,16.60
2019-01-24T16:12:31.387Z,16.63
2019-01-24T16:14:59.726Z,16.70
2019-01-24T16:17:28.444Z,16.23
2019-01-24T16:19:56.824Z,16.40
2019-01-24T16:22:25.121Z,17.50
2019-01-24T16:24:53.571Z,16.10
2019-01-24T16:27:22.442Z,16.03
2019-01-24T16:29:50.835Z,15.70
2019-01-24T16:32:19.279Z,16.30
2019-01-24T16:34:47.631Z,16.67
2019-01-24T16:37:15.978Z,15.63
2019-01-24T16:39:44.624Z,15.97
2019-01-24T16:42:13.743Z,15.93
2019-01-24T16:44:42.437Z,15.73
2019-01-24T16:47:11.087Z,16.03
2019-01-24T16:49:39.818Z,14.00
2019-01-24T16:52:08.151Z,16.43
2019-01-24T16:54:36.559Z,16.77
2019-01-24T16:57:05.015Z,15.83
2019-01-24T16:59:33.615Z,16.40
2019-01-24T17:02:01.956Z,15.90
2019-01-24T17:04:30.374Z,16.00
2019-01-24T17:06:59.015Z,15.50
2019-01-24T17:09:27.353Z,16.23
2019-01-24T17:11:55.731Z,15.30
2019-01-24T17:14:24.194Z,17.50
2019-01-24T17:16:52.535Z,16.60
2019-01-24T17:19:21.114Z,14.03
2019-01-24T17:21:49.581Z,16.47
2019-01-24T17:24:17.909Z,15.73
2019-01-24T17:26:46.238Z,17.13
2019-01-24T17:29:14.769Z,13.70
2019-01-24T17:31:43.147Z,14.73
2019-01-24T17:34:11.832Z,15.00
2019-01-24T17:36:40.176Z,16.57
2019-01-24T17:39:11.012Z,14.37
2019-01-24T17:41:39.366Z,15.70
2019-01-24T17:44:07.771Z,15.80
2019-01-24T17:46:36.116Z,15.20
2019-01-24T17:49:04.521Z,15.00
2019-01-24T17:51:33.175Z,15.60
2019-01-24T17:54:01.785Z,16.27
2019-01-24T17:56:30.098Z,15.57
2019-01-24T17:58:58.644Z,15.40
2019-01-24T18:01:27.057Z,14.40
2019-01-24T18:03:55.678Z,14.97
2019-01-24T18:06:24.146Z,14.20
2019-01-24T18:08:53.898Z,16.33
2019-01-24T18:11:20.994Z,15.00
2019-01-24T18:13:49.316Z,15.23
2019-01-24T18:16:17.988Z,16.00
2019-01-24T18:18:46.317Z,15.60
2019-01-24T18:21:15.612Z,16.33
2019-01-24T18:23:43.944Z,15.70
2019-01-24T18:26:12.267Z,14.40
2019-01-24T18:28:40.748Z,16.77
2019-01-24T18:31:09.194Z,16.20
2019-01-24T18:33:37.605Z,17.50
2019-01-24T18:36:06.180Z,17.50
2019-01-24T18:38:38.498Z,17.37
2019-01-24T18:41:08.618Z,15.37
2019-01-24T18:43:31.464Z,17.03
2019-01-24T18:46:01.205Z,17.03
2019-01-24T18:48:29.651Z,16.97
2019-01-24T18:50:58.046Z,15.03
2019-01-24T18:53:26.555Z,17.83
2019-01-24T18:55:54.929Z,16.63
2019-01-24T18:58:23.394Z,15.80
2019-01-24T19:00:51.856Z,15.73
2019-01-24T19:03:20.491Z,14.47
2019-01-24T19:05:49.049Z,18.87
2019-01-24T19:08:17.380Z,20.60
2019-01-24T19:10:45.745Z,19.67
2019-01-24T19:13:14.216Z,16.90
2019-01-24T19:15:44.534Z,16.43
2019-01-24T19:18:13.917Z,18.13
2019-01-24T19:20:42.485Z,16.70
2019-01-24T19:23:11.066Z,16.63
2019-01-24T19:25:39.574Z,15.50
2019-01-24T19:28:09.923Z,15.30
2019-01-24T19:30:38.483Z,15.53
2019-01-24T19:33:07.107Z,14.03
2019-01-24T19:35:35.429Z,14.13
2019-01-24T19:38:03.788Z,15.90
2019-01-24T19:40:32.333Z,13.83
2019-01-24T19:43:00.808Z,14.07
2019-01-24T19:45:29.112Z,14.60
2019-01-24T19:47:57.498Z,14.20
2019-01-24T19:50:27.118Z,13.23
2019-01-24T19:52:55.483Z,15.63
2019-01-24T19:55:24.273Z,15.50
2019-01-24T19:57:53.341Z,15.30
2019-01-24T20:00:24.765Z,13.87
2019-01-24T20:02:53.168Z,15.87
2019-01-24T20:05:21.577Z,13.97
2019-01-24T20:07:49.956Z,13.83
2019-01-24T20:10:20.264Z,14.47
2019-01-24T20:12:48.690Z,16.10
2019-01-24T20:15:20.240Z,15.60
2019-01-24T20:17:49.644Z,15.33
2019-01-24T20:20:17.354Z,15.73
2019-01-24T20:22:45.744Z,15.20
2019-01-24T20:25:16.150Z,15.40
2019-01-24T20:27:45.040Z,13.60
2019-01-24T20:30:17.145Z,14.37
2019-01-24T20:32:45.736Z,14.63
2019-01-24T20:35:18.129Z,14.80
2019-01-24T20:37:46.506Z,13.77
2019-01-24T20:40:15.016Z,14.13
2019-01-24T20:42:43.502Z,16.77
2019-01-24T20:45:11.927Z,21.83
2019-01-24T20:47:40.314Z,18.77
2019-01-24T20:50:10.285Z,17.43
2019-01-24T20:52:38.625Z,18.40
2019-01-24T20:55:07.870Z,17.40
2019-01-24T20:57:36.952Z,16.47
2019-01-24T21:00:08.931Z,15.73
2019-01-24T21:02:37.299Z,16.63
2019-01-24T21:05:06.251Z,16.40
2019-01-24T21:07:34.828Z,14.20
2019-01-24T21:10:03.279Z,16.63
2019-01-24T21:12:31.988Z,17.70
2019-01-24T21:15:00.349Z,17.07
2019-01-24T21:17:28.999Z,16.57
2019-01-24T21:19:57.345Z,16.30
2019-01-24T21:22:25.694Z,16.17
2019-01-24T21:24:54.054Z,18.53
2019-01-24T21:27:23.128Z,16.67
2019-01-24T21:29:51.449Z,18.27
2019-01-24T21:32:19.762Z,17.40
2019-01-24T21:34:48.159Z,18.63
2019-01-24T21:37:16.542Z,20.13
2019-01-24T21:39:44.890Z,18.70
2019-01-24T21:42:13.235Z,17.87
2019-01-24T21:44:41.561Z,17.20
2019-01-24T21:47:10.112Z,17.10
2019-01-24T21:49:38.651Z,18.03
2019-01-24T21:52:07.251Z,18.47
2019-01-24T21:54:35.627Z,20.87
2019-01-24T21:57:04.007Z,19.03
2019-01-24T21:59:32.634Z,17.77
2019-01-24T22:02:01.050Z,19.93
2019-01-24T22:04:29.391Z,19.30
2019-01-24T22:06:57.789Z,18.00
2019-01-24T22:09:29.275Z,19.97
2019-01-24T22:11:54.626Z,21.13
2019-01-24T22:14:22.986Z,18.60
2019-01-24T22:16:51.373Z,19.47
2019-01-24T22:19:19.980Z,21.00
2019-01-24T22:21:48.332Z,22.40
2019-01-24T22:24:16.700Z,24.93
2019-01-24T22:26:45.061Z,25.03
2019-01-24T22:29:13.536Z,30.47
2019-01-24T22:31:41.989Z,36.87
2019-01-24T22:34:10.353Z,32.47
2019-01-24T22:36:38.932Z,36.23
2019-01-24T22:39:09.398Z,31.63
2019-01-24T22:41:37.719Z,33.77
2019-01-24T22:44:06.115Z,38.87
2019-01-24T22:46:34.457Z,33.53
2019-01-24T22:49:02.829Z,32.87
2019-01-24T22:51:31.172Z,35.17
2019-01-24T22:53:59.504Z,34.73
2019-01-24T22:56:35.229Z,34.10
2019-01-24T22:58:56.397Z,33.87
2019-01-24T23:01:33.749Z,33.23
2019-01-24T23:04:08.292Z,29.70
2019-01-24T23:06:36.728Z,35.43
2019-01-24T23:09:08.513Z,27.60
2019-01-24T23:11:37.554Z,30.27
2019-01-24T23:14:06.173Z,29.80
2019-01-24T23:16:34.505Z,28.10
2019-01-24T23:19:03.126Z,30.00
2019-01-24T23:21:31.452Z,34.60
2019-01-24T23:23:59.794Z,28.67
2019-01-24T23:26:28.136Z,27.97
2019-01-24T23:28:56.622Z,28.17
2019-01-24T23:31:24.953Z,28.40
2019-01-24T23:33:53.770Z,28.13
2019-01-24T23:36:22.429Z,32.37
2019-01-24T23:38:50.788Z,34.03
2019-01-24T23:41:19.142Z,28.73
2019-01-24T23:43:47.750Z,33.83
2019-01-24T23:46:16.183Z,32.20
2019-01-24T23:48:44.636Z,29.67
2019-01-24T23:51:12.992Z,32.77
2019-01-24T23:53:41.287Z,30.40
2019-01-24T23:56:09.613Z,28.53
2019-01-24T23:58:37.949Z,37.97
